Warner, Virginia
Current Conditions -  °F | °C
As of 3:15 AM on Tuesday 21 Oct 2014 (Local Time) from KW75 Reporting Station
Overcast Overcast  
Wind Chill: 58°   Ceiling: 9500
Heat Index: 58°   Visibility: 10mi
Dew Point: 53°   Wind: 5mph
Humidity: 83%   Direction: 210°SSW
Pressure: 29.91"   Gusts: NA
Location:  37.6507°N, 76.6196°W
Report Text: KW75 210715Z AUTO 21004KT 10SM OVC095 14/12 A2991 RMK AO1 T01430115
Loading
Personal Weather Stations






























Interactive Weather Map
Tropical Storm Tracking
New forecast layout! Learn more

10-Day Weather Forecast

Advertisements
Track Severe Weather on mobile